Погода Атбарана неделю

Нил, Судан

01 - 07 марта
  • 01марта
    Сегодня
    +20°
    +35°
    Ясно и безоблачно
    ВремяПогодаТемператураВлажностьДавлениеВетер, м/сВероятность осадков
    02:00Ясно и безоблачно+22°C24 %727 мм4.5 м/с0 %
    05:00Ясно и безоблачно+19°C49 %727 мм3.4 м/с0 %
    08:00Практически безоблачно+22°C39 %728 мм2.0 м/с0 %
    11:00Ясно и безоблачно+30°C18 %729 мм2.1 м/с0 %
    14:00Ясно и безоблачно+34°C11 %727 мм0.9 м/с0 %
    17:00Ясно и безоблачно+35°C10 %727 мм1.9 м/с0 %
    20:00Ясно и безоблачно+30°C14 %727 мм2.7 м/с0 %
    23:00Ясно и безоблачно+26°C18 %728 мм3.3 м/с0 %
  • 02марта
    Суббота
    +22°
    +37°
    Небольшая облачность
    ВремяПогодаТемператураВлажностьДавлениеВетер, м/сВероятность осадков
    02:00Ясно и безоблачно+23°C24 %727 мм4.3 м/с0 %
    05:00Ясно и безоблачно+22°C27 %728 мм4.8 м/с0 %
    08:00Ясно и безоблачно+24°C22 %729 мм3.3 м/с0 %
    11:00Ясно и безоблачно+33°C22 %730 мм3.0 м/с0 %
    14:00Небольшая облачность+36°C13 %728 мм3.5 м/с0 %
    17:00Практически безоблачно+36°C12 %727 мм5.2 м/с0 %
    20:00Ясно и безоблачно+31°C19 %728 мм3.5 м/с0 %
    23:00Ясно и безоблачно+28°C19 %729 мм5.5 м/с0 %
  • 03марта
    Воскресенье
    +20°
    +37°
    Небольшая облачность
    ВремяПогодаТемператураВлажностьДавлениеВетер, м/сВероятность осадков
    02:00Ясно и безоблачно+25°C17 %727 мм5.6 м/с0 %
    05:00Ясно и безоблачно+23°C20 %728 мм6.4 м/с0 %
    08:00Облачно с прояснениями+25°C18 %730 мм6.0 м/с0 %
    11:00Небольшая облачность+32°C27 %730 мм5.5 м/с0 %
    14:00Небольшая облачность+36°C16 %728 мм4.2 м/с0 %
    17:00Ясно и безоблачно+36°C11 %727 мм4.8 м/с0 %
    20:00Ясно и безоблачно+31°C13 %728 мм5.2 м/с0 %
    23:00Ясно и безоблачно+27°C16 %728 мм5.7 м/с0 %
  • 04марта
    Понедельник
    +20°
    +37°
    Ясно и безоблачно
    ВремяПогодаТемператураВлажностьДавлениеВетер, м/сВероятность осадков
    02:00Ясно и безоблачно+25°C16 %727 мм6.7 м/с0 %
    05:00Ясно и безоблачно+22°C20 %727 мм5.9 м/с0 %
    08:00Ясно и безоблачно+23°C26 %729 мм4.4 м/с0 %
    11:00Ясно и безоблачно+32°C26 %729 мм3.4 м/с0 %
    14:00Ясно и безоблачно+36°C16 %727 мм2.5 м/с0 %
    17:00Ясно и безоблачно+36°C13 %726 мм3.7 м/с0 %
    20:00Ясно и безоблачно+31°C14 %727 мм3.7 м/с0 %
    23:00Ясно и безоблачно+27°C21 %727 мм4.4 м/с0 %
  • 05марта
    Вторник
    +21°
    +36°
    Ясно и безоблачно
    ВремяПогодаТемператураВлажностьДавлениеВетер, м/сВероятность осадков
    02:00Ясно и безоблачно+24°C23 %726 мм3.8 м/с0 %
    05:00Ясно и безоблачно+21°C34 %726 мм3.2 м/с0 %
    08:00Ясно и безоблачно+23°C32 %728 мм2.4 м/с0 %
    11:00Ясно и безоблачно+31°C22 %728 мм3.2 м/с0 %
    14:00Ясно и безоблачно+36°C10 %726 мм4.2 м/с0 %
    17:00Ясно и безоблачно+35°C12 %726 мм5.2 м/с0 %
    20:00Ясно и безоблачно+30°C15 %727 мм4.7 м/с0 %
    23:00Ясно и безоблачно+27°C18 %728 мм5.2 м/с0 %
Мы используем cookies
Соглашаюсь